Time;durP1;ratioP1;P1;durP2;ratioP2;P2;SDS_P1;SDS_P2;PMS_P1;PMS_P2;Temp;Humidity;BMP_temperature;BMP_pressure;BME280_temperature;BME280_humidity;BME280_pressure;Samples;Min_cycle;Max_cycle;Signal;HPM_P1;HPM_P2
2023/07/09 00:02:02;;;;;;;4.18;3.33;;;20.70;99.90;;;;;;6280233;22;20102;-93
2023/07/09 00:04:33;;;;;;;4.15;3.30;;;20.70;99.90;;;;;;6280346;22;20018;-96
2023/07/09 00:07:02;;;;;;;3.88;3.05;;;20.70;99.90;;;;;;6279787;22;20051;-96
2023/07/09 00:09:28;;;;;;;3.05;2.75;;;20.70;99.90;;;;;;6279819;22;20012;-95
2023/07/09 00:11:56;;;;;;;3.67;3.08;;;20.70;99.90;;;;;;6279874;22;20022;-93
2023/07/09 00:14:22;;;;;;;4.03;2.97;;;20.60;99.90;;;;;;6279525;22;20015;-94
2023/07/09 00:16:48;;;;;;;4.03;3.42;;;20.60;99.90;;;;;;6254290;22;20015;-95
2023/07/09 00:19:20;;;;;;;3.75;3.22;;;20.50;99.90;;;;;;6280230;22;20045;-94
2023/07/09 00:21:49;;;;;;;3.67;3.30;;;20.50;99.90;;;;;;6279294;22;20019;-95
2023/07/09 00:24:21;;;;;;;3.67;3.38;;;20.40;99.90;;;;;;6281481;22;20046;-93
2023/07/09 00:26:48;;;;;;;3.65;3.33;;;20.40;99.90;;;;;;6306293;22;20443;-94
2023/07/09 00:29:16;;;;;;;3.88;3.03;;;20.40;99.90;;;;;;6279256;22;20015;-95
2023/07/09 00:31:45;;;;;;;4.20;3.42;;;20.30;99.90;;;;;;6279566;22;20015;-94
2023/07/09 00:34:14;;;;;;;5.28;3.33;;;20.40;99.90;;;;;;6279626;22;20061;-94
2023/07/09 00:36:43;;;;;;;3.83;3.42;;;20.30;99.90;;;;;;6278931;22;20019;-95
2023/07/09 00:39:20;;;;;;;4.88;3.40;;;20.30;99.90;;;;;;6280076;22;20011;-95
2023/07/09 00:41:47;;;;;;;4.00;3.60;;;20.20;99.90;;;;;;6279831;22;20019;-94
2023/07/09 00:44:31;;;;;;;5.80;3.58;;;20.10;99.90;;;;;;6280450;22;20011;-94
2023/07/09 00:47:03;;;;;;;5.40;3.35;;;20.10;99.90;;;;;;6280711;22;20041;-94
2023/07/09 00:49:30;;;;;;;4.53;3.00;;;20.10;99.90;;;;;;6308566;22;20018;-95
2023/07/09 00:52:02;;;;;;;4.35;3.78;;;20.10;99.90;;;;;;6280407;22;20015;-93
2023/07/09 00:54:43;;;;;;;4.28;3.88;;;20.00;99.90;;;;;;6282471;22;20047;-94
2023/07/09 00:57:17;;;;;;;4.40;3.22;;;20.00;99.90;;;;;;6280484;22;20011;-95
2023/07/09 00:59:46;;;;;;;4.57;3.60;;;20.00;99.90;;;;;;6281464;22;20019;-94
2023/07/09 01:02:11;;;;;;;5.30;3.72;;;20.00;99.90;;;;;;6307054;22;20102;-94
2023/07/09 01:04:39;;;;;;;3.85;3.45;;;20.00;99.90;;;;;;6282426;22;20100;-94
2023/07/09 01:07:04;;;;;;;;;;;20.00;99.90;;;;;;6282545;22;20014;-94
2023/07/09 01:09:30;;;;;;;4.70;3.65;;;20.00;99.90;;;;;;6281637;22;19985;-94
2023/07/09 01:12:01;;;;;;;5.55;3.75;;;20.00;99.90;;;;;;6281523;22;20076;-93
2023/07/09 01:14:27;;;;;;;3.70;3.13;;;20.00;99.90;;;;;;6281888;22;20015;-94
2023/07/09 01:16:59;;;;;;;4.00;3.60;;;19.90;99.90;;;;;;6281689;22;20015;-94
2023/07/09 01:19:28;;;;;;;4.07;3.65;;;19.90;99.90;;;;;;6281252;22;20050;-94
2023/07/09 01:22:01;;;;;;;5.28;3.60;;;19.80;99.90;;;;;;6281650;22;20019;-94
2023/07/09 01:25:06;;;;;;;5.03;3.70;;;19.80;99.90;;;;;;6282214;22;20015;-94
2023/07/09 01:27:39;;;;;;;4.93;3.97;;;19.80;99.90;;;;;;6281385;22;20011;-96
2023/07/09 01:30:09;;;;;;;3.92;3.53;;;19.70;99.90;;;;;;6281960;22;20018;-93
2023/07/09 01:32:45;;;;;;;3.85;3.53;;;19.60;99.90;;;;;;6281805;22;20018;-94
2023/07/09 01:35:11;;;;;;;4.30;3.78;;;19.60;99.90;;;;;;6282829;22;20022;-95
2023/07/09 01:37:38;;;;;;;8.55;4.00;;;19.50;99.90;;;;;;6282003;22;20015;-93
2023/07/09 01:40:06;;;;;;;4.88;4.18;;;19.50;99.90;;;;;;6281937;22;20011;-93
2023/07/09 01:42:32;;;;;;;5.05;3.65;;;19.40;99.90;;;;;;6281522;22;20022;-93
2023/07/09 01:45:03;;;;;;;5.05;4.03;;;19.40;99.90;;;;;;6282160;22;20008;-94
2023/07/09 01:47:29;;;;;;;7.22;3.97;;;19.30;99.90;;;;;;6282037;22;20012;-94
2023/07/09 01:49:57;;;;;;;4.00;3.60;;;19.30;99.90;;;;;;6281569;22;20560;-95
2023/07/09 01:52:24;;;;;;;;;;;19.30;99.90;;;;;;6281824;22;20077;-95
2023/07/09 01:54:53;;;;;;;4.90;4.45;;;19.30;99.90;;;;;;6282011;22;20502;-93
2023/07/09 01:57:33;;;;;;;6.88;4.60;;;19.30;99.90;;;;;;6280935;22;20022;-93
2023/07/09 02:00:04;;;;;;;4.63;3.88;;;19.30;99.90;;;;;;6306946;22;20034;-94
2023/07/09 02:02:31;;;;;;;4.97;4.05;;;19.20;99.90;;;;;;6281368;22;20050;-94
2023/07/09 02:04:59;;;;;;;5.28;4.53;;;19.20;99.90;;;;;;6281317;22;20018;-95
2023/07/09 02:07:25;;;;;;;4.72;4.30;;;19.20;99.90;;;;;;6280984;22;20427;-94
2023/07/09 02:09:54;;;;;;;4.65;4.15;;;19.20;99.90;;;;;;6281518;22;20011;-95
2023/07/09 02:12:20;;;;;;;4.50;4.10;;;19.20;99.90;;;;;;6281617;22;20094;-93
2023/07/09 02:14:46;;;;;;;5.22;4.20;;;19.20;99.90;;;;;;6280672;22;20019;-93
2023/07/09 02:17:14;;;;;;;4.68;4.28;;;19.20;99.90;;;;;;6280987;22;20068;-93
2023/07/09 02:19:40;;;;;;;6.20;4.20;;;19.20;99.90;;;;;;6280478;22;20026;-95
2023/07/09 02:22:07;;;;;;;4.90;4.43;;;19.20;99.90;;;;;;6280567;22;20105;-95
2023/07/09 02:24:33;;;;;;;4.40;4.00;;;19.20;99.90;;;;;;6281078;22;20069;-94
2023/07/09 02:27:03;;;;;;;4.22;3.83;;;19.10;99.90;;;;;;6281305;22;20008;-95
2023/07/09 02:29:30;;;;;;;4.90;4.50;;;19.10;99.90;;;;;;6281036;22;20015;-95
2023/07/09 02:32:00;;;;;;;6.47;4.43;;;19.10;99.90;;;;;;6281350;22;20011;-95
2023/07/09 02:34:27;;;;;;;4.55;4.15;;;19.00;99.90;;;;;;6281592;22;20022;-95
2023/07/09 02:36:55;;;;;;;;;;;19.00;99.90;;;;;;6281922;22;20015;-96
2023/07/09 02:39:22;;;;;;;4.50;4.10;;;18.90;99.90;;;;;;6255566;22;19929;-95
2023/07/09 02:41:49;;;;;;;5.57;5.00;;;18.90;99.90;;;;;;6281297;22;20111;-95
2023/07/09 02:44:16;;;;;;;4.45;4.05;;;18.80;99.90;;;;;;6280749;22;20435;-96
2023/07/09 02:46:42;;;;;;;4.80;4.38;;;18.80;99.90;;;;;;6280025;22;20560;-95
2023/07/09 02:49:11;;;;;;;4.78;4.38;;;18.70;99.90;;;;;;6280623;22;20011;-94
2023/07/09 02:51:37;;;;;;;5.95;4.72;;;18.70;99.90;;;;;;6279412;22;20604;-95
2023/07/09 02:54:04;;;;;;;4.40;4.00;;;18.70;99.90;;;;;;6279740;22;20119;-94
2023/07/09 02:56:30;;;;;;;4.97;4.47;;;18.60;99.90;;;;;;6280168;22;20153;-96
2023/07/09 02:58:56;;;;;;;4.60;4.20;;;18.60;99.90;;;;;;6279984;22;20034;-94
2023/07/09 03:01:24;;;;;;;6.05;4.35;;;18.60;99.90;;;;;;6279363;22;20409;-95
2023/07/09 03:03:54;;;;;;;5.15;4.70;;;18.60;99.90;;;;;;6279663;22;20503;-96
2023/07/09 03:06:24;;;;;;;4.90;4.30;;;18.70;99.90;;;;;;6305850;22;20022;-94
2023/07/09 03:08:51;;;;;;;6.72;4.75;;;18.70;99.90;;;;;;6280038;22;20015;-95
2023/07/09 03:11:17;;;;;;;;;;;18.70;99.90;;;;;;6280870;22;20506;-94
2023/07/09 03:13:44;;;;;;;5.40;4.88;;;18.70;99.90;;;;;;6282331;22;19953;-94
2023/07/09 03:16:10;;;;;;;5.05;4.55;;;18.60;99.90;;;;;;6308763;22;20018;-95
2023/07/09 03:18:36;;;;;;;5.63;4.40;;;18.60;99.90;;;;;;6307758;22;20021;-95
2023/07/09 03:21:05;;;;;;;4.68;4.10;;;18.60;99.90;;;;;;6281923;22;20019;-95
2023/07/09 03:23:31;;;;;;;5.38;4.47;;;18.50;99.90;;;;;;6317581;22;20012;-96
2023/07/09 03:25:59;;;;;;;5.80;4.40;;;18.50;99.90;;;;;;6301000;22;20007;-96
2023/07/09 03:28:28;;;;;;;5.18;4.40;;;18.50;99.90;;;;;;6321573;22;20008;-96
2023/07/09 03:30:56;;;;;;;6.32;4.97;;;18.50;99.90;;;;;;6302226;22;20006;-96
2023/07/09 03:33:31;;;;;;;4.60;4.20;;;18.50;99.90;;;;;;6299661;22;20052;-94
2023/07/09 03:36:00;;;;;;;6.72;4.32;;;18.50;99.90;;;;;;6282726;22;20097;-94
2023/07/09 03:38:26;;;;;;;6.10;4.30;;;18.50;99.90;;;;;;6282255;22;20012;-95
2023/07/09 03:40:54;;;;;;;5.13;4.30;;;18.50;99.90;;;;;;6281107;22;20053;-94
2023/07/09 03:43:21;;;;;;;5.40;4.90;;;18.50;99.90;;;;;;6286868;22;20015;-94
2023/07/09 03:45:48;;;;;;;5.70;4.32;;;18.50;99.90;;;;;;6284748;22;20026;-95
2023/07/09 03:48:15;;;;;;;4.53;4.07;;;18.50;99.90;;;;;;6283372;22;20076;-95
2023/07/09 03:50:44;;;;;;;4.47;4.00;;;18.50;99.90;;;;;;6283827;22;20102;-95
2023/07/09 03:53:12;;;;;;;5.68;4.70;;;18.60;99.90;;;;;;6283260;22;20018;-95
2023/07/09 03:55:39;;;;;;;4.80;4.30;;;18.60;99.90;;;;;;6285334;22;20011;-96
2023/07/09 03:58:08;;;;;;;5.85;4.30;;;18.60;99.90;;;;;;6284950;22;20015;-96
2023/07/09 04:00:35;;;;;;;4.93;4.22;;;18.70;99.90;;;;;;6285198;22;20018;-95
2023/07/09 04:03:01;;;;;;;5.28;4.43;;;18.70;99.90;;;;;;6283786;22;20015;-95
2023/07/09 04:05:29;;;;;;;5.22;4.72;;;18.70;99.90;;;;;;6282663;22;20014;-95
2023/07/09 04:07:55;;;;;;;4.55;4.13;;;18.80;99.90;;;;;;6280870;22;20393;-96
2023/07/09 04:10:22;;;;;;;6.90;4.80;;;18.80;99.90;;;;;;6281431;22;20034;-94
2023/07/09 04:12:48;;;;;;;5.38;4.88;;;18.80;99.90;;;;;;6281098;22;20068;-94
2023/07/09 04:15:13;;;;;;;6.55;5.13;;;18.80;99.90;;;;;;6307169;22;20711;-95
2023/07/09 04:17:40;;;;;;;4.85;4.45;;;18.80;99.90;;;;;;6281523;22;20607;-95
2023/07/09 04:20:11;;;;;;;4.95;4.43;;;19.00;99.90;;;;;;6309550;22;20015;-94
2023/07/09 04:22:40;;;;;;;4.90;4.40;;;19.10;99.90;;;;;;6283442;22;20012;-95
2023/07/09 04:25:09;;;;;;;4.70;4.20;;;19.20;99.90;;;;;;6282824;22;20011;-94
2023/07/09 04:27:36;;;;;;;5.47;4.80;;;19.20;99.90;;;;;;6310005;22;20007;-94
2023/07/09 04:30:04;;;;;;;4.80;4.30;;;19.30;99.90;;;;;;6260777;22;20026;-95
2023/07/09 04:32:33;;;;;;;5.32;4.70;;;19.30;99.90;;;;;;6286097;22;20015;-94
2023/07/09 04:35:02;;;;;;;5.13;4.60;;;19.30;99.90;;;;;;6312639;22;20015;-95
2023/07/09 04:37:28;;;;;;;6.38;4.00;;;19.40;99.90;;;;;;6286410;22;20022;-94
2023/07/09 04:39:56;;;;;;;4.78;4.28;;;19.50;99.90;;;;;;6287001;22;20019;-95
2023/07/09 04:42:27;;;;;;;4.82;4.22;;;19.50;99.90;;;;;;6286412;22;20054;-94
2023/07/09 04:45:03;;;;;;;4.90;4.40;;;19.50;99.90;;;;;;6285862;22;20322;-94
2023/07/09 04:47:32;;;;;;;4.90;4.40;;;19.50;99.90;;;;;;6286972;22;20094;-95
2023/07/09 04:50:00;;;;;;;4.68;4.15;;;19.70;99.90;;;;;;6286367;22;20011;-96
2023/07/09 04:52:26;;;;;;;5.47;4.43;;;19.70;99.90;;;;;;6309974;22;20015;-94
2023/07/09 04:54:52;;;;;;;4.50;4.05;;;19.80;99.90;;;;;;6284419;22;20019;-95
2023/07/09 04:57:18;;;;;;;5.67;4.30;;;19.90;99.90;;;;;;6285083;22;20015;-93
2023/07/09 04:59:44;;;;;;;4.57;4.10;;;19.90;99.90;;;;;;6284982;22;20018;-93
2023/07/09 05:02:10;;;;;;;4.80;4.07;;;20.10;99.90;;;;;;6283972;22;20012;-94
2023/07/09 05:04:36;;;;;;;5.55;4.45;;;20.20;99.90;;;;;;6285009;22;20014;-94
2023/07/09 05:07:02;;;;;;;4.60;3.88;;;20.30;99.90;;;;;;6284049;22;20094;-94
2023/07/09 05:09:27;;;;;;;5.55;4.07;;;20.40;99.90;;;;;;6262794;22;20018;-95
2023/07/09 05:11:54;;;;;;;5.47;3.88;;;20.50;99.90;;;;;;6286291;22;20015;-95
2023/07/09 05:14:23;;;;;;;4.60;3.70;;;20.60;99.90;;;;;;6289742;22;20034;-94
2023/07/09 05:17:01;;;;;;;5.85;3.55;;;20.70;99.90;;;;;;6314217;22;20370;-95
2023/07/09 05:19:36;;;;;;;4.13;3.47;;;20.90;99.90;;;;;;6286550;22;20049;-95
2023/07/09 05:22:07;;;;;;;4.90;4.00;;;20.90;99.90;;;;;;6283598;22;20023;-94
2023/07/09 05:24:41;;;;;;;4.43;3.90;;;21.10;99.90;;;;;;6285515;22;20045;-95
2023/07/09 05:27:14;;;;;;;4.45;3.83;;;21.20;99.90;;;;;;6285689;22;20446;-95
2023/07/09 05:29:43;;;;;;;4.25;3.85;;;21.30;99.90;;;;;;6283735;22;20068;-95
2023/07/09 05:32:14;;;;;;;4.50;3.78;;;21.60;99.90;;;;;;6305904;22;20015;-94
2023/07/09 05:34:46;;;;;;;4.75;3.50;;;21.60;99.90;;;;;;6284520;22;20049;-96
2023/07/09 05:38:01;;;;;;;5.95;3.80;;;21.80;99.90;;;;;;6286046;22;20055;-95
2023/07/09 05:41:09;;;;;;;5.88;3.58;;;21.90;99.90;;;;;;6296309;22;20015;-96
2023/07/09 05:43:44;;;;;;;4.20;3.00;;;22.50;99.90;;;;;;6319215;22;20034;-95
2023/07/09 05:46:21;;;;;;;5.22;3.15;;;23.00;99.90;;;;;;6291310;22;20450;-95
2023/07/09 05:49:05;;;;;;;6.90;3.50;;;23.60;99.90;;;;;;6298731;22;20053;-96
2023/07/09 05:51:31;;;;;;;4.03;3.58;;;24.10;99.90;;;;;;6291731;22;20019;-96
2023/07/09 05:54:00;;;;;;;6.55;3.60;;;24.60;99.90;;;;;;6320397;22;20062;-95
2023/07/09 05:56:29;;;;;;;3.28;2.83;;;25.20;99.90;;;;;;6289649;22;20052;-96
2023/07/09 05:59:04;;;;;;;4.72;3.15;;;25.40;99.90;;;;;;6294823;22;20011;-96
2023/07/09 06:01:43;;;;;;;4.35;3.20;;;25.90;99.90;;;;;;6290944;22;20039;-95
2023/07/09 06:04:13;;;;;;;3.92;3.20;;;26.30;99.90;;;;;;6286611;22;20022;-94
2023/07/09 06:06:46;;;;;;;4.95;3.28;;;26.40;99.90;;;;;;6287154;22;20062;-95
2023/07/09 06:10:18;;;;;;;;;;;;;;;;;;;;;
2023/07/09 06:12:48;;;;;;;4.93;3.20;;;26.20;99.90;;;;;;6308626;22;20369;-95
2023/07/09 06:15:22;;;;;;;3.50;3.20;;;26.30;99.90;;;;;;6317396;22;20026;-95
2023/07/09 06:17:56;;;;;;;3.33;2.97;;;26.30;99.90;;;;;;6289560;22;20042;-96
2023/07/09 06:20:28;;;;;;;4.10;3.00;;;26.40;99.90;;;;;;6289954;22;20019;-95
2023/07/09 06:23:12;;;;;;;3.53;2.95;;;26.20;99.90;;;;;;6265519;22;20015;-95
2023/07/09 06:26:17;;;;;;;4.38;3.47;;;26.10;99.90;;;;;;6287296;22;20012;-94
2023/07/09 06:29:22;;;;;;;3.72;3.28;;;26.00;99.90;;;;;;6286079;22;20037;-96
2023/07/09 06:31:48;;;;;;;3.95;3.20;;;26.40;99.90;;;;;;6270243;22;20015;-96
2023/07/09 06:34:14;;;;;;;5.23;3.30;;;26.60;99.90;;;;;;6310331;22;20145;-96
2023/07/09 06:36:58;;;;;;;;;;;;;;;;;;;;;
2023/07/09 06:39:34;;;;;;;;;;;;;;;;;;;;;
2023/07/09 06:42:15;;;;;;;3.72;3.30;;;28.60;99.90;;;;;;6318867;22;20037;-96
2023/07/09 06:44:58;;;;;;;3.25;2.95;;;28.60;99.90;;;;;;6269708;22;20026;-96
2023/07/09 06:48:00;;;;;;;;;;;;;;;;;;;;;
2023/07/09 06:54:37;;;;;;;4.32;3.25;;;30.40;99.90;;;;;;6195758;23;20024;-96
2023/07/09 06:57:24;;;;;;;4.55;3.00;;;31.10;99.90;;;;;;6171773;23;20098;-95
2023/07/09 06:59:53;;;;;;;4.25;3.10;;;31.20;99.90;;;;;;6165653;23;20183;-92
2023/07/09 07:02:18;;;;;;;3.20;2.90;;;31.50;99.90;;;;;;6209480;22;20458;-93
2023/07/09 07:04:44;;;;;;;3.63;3.15;;;31.60;99.90;;;;;;6281074;22;20426;-92
2023/07/09 07:07:10;;;;;;;3.63;3.15;;;31.50;99.90;;;;;;6280282;22;20011;-93
2023/07/09 07:09:36;;;;;;;3.72;3.10;;;31.10;99.90;;;;;;6280777;22;20447;-92
2023/07/09 07:12:01;;;;;;;3.97;3.00;;;30.70;99.90;;;;;;6280048;22;20026;-89
2023/07/09 07:14:27;;;;;;;3.80;3.20;;;30.30;99.90;;;;;;6251929;22;20015;-93
2023/07/09 07:16:57;;;;;;;4.72;2.85;;;30.40;99.90;;;;;;6306914;22;20015;-95
2023/07/09 07:19:24;;;;;;;3.70;3.00;;;31.00;99.90;;;;;;6283187;22;20019;-96
2023/07/09 07:21:53;;;;;;;3.33;2.80;;;31.50;99.90;;;;;;6285552;22;20026;-95
2023/07/09 07:24:19;;;;;;;6.28;3.40;;;32.00;99.90;;;;;;6288830;22;20103;-96
2023/07/09 07:26:45;;;;;;;4.50;3.00;;;32.40;99.30;;;;;;6283191;22;20330;-93
2023/07/09 07:29:13;;;;;;;5.78;2.97;;;32.70;98.80;;;;;;6283105;22;20018;-96
2023/07/09 07:31:50;;;;;;;5.07;3.15;;;32.90;97.70;;;;;;6282741;22;20015;-94
2023/07/09 07:34:16;;;;;;;5.57;2.95;;;33.30;97.00;;;;;;6283154;22;20003;-95
2023/07/09 07:36:45;;;;;;;3.53;3.00;;;33.60;96.30;;;;;;6305739;22;20023;-96
2023/07/09 07:39:11;;;;;;;3.78;3.08;;;34.00;94.90;;;;;;6281584;22;20015;-96
2023/07/09 07:41:37;;;;;;;;;;;34.30;94.30;;;;;;6283391;22;20011;-95
2023/07/09 07:44:02;;;;;;;4.65;2.70;;;33.80;91.90;;;;;;6255576;22;20369;-91
2023/07/09 07:46:32;;;;;;;5.80;3.15;;;33.90;94.00;;;;;;6280729;22;20107;-92
2023/07/09 07:48:57;;;;;;;5.30;2.97;;;33.60;93.50;;;;;;6280251;22;20338;-91
2023/07/09 07:51:23;;;;;;;3.10;2.80;;;33.20;93.10;;;;;;6279772;22;20007;-93
2023/07/09 07:53:49;;;;;;;4.30;2.83;;;32.80;93.20;;;;;;6279785;22;20022;-90
2023/07/09 07:56:15;;;;;;;4.22;3.08;;;32.20;93.50;;;;;;6279915;22;20019;-91
2023/07/09 07:58:42;;;;;;;5.45;2.78;;;31.70;93.40;;;;;;6305609;22;20029;-92
2023/07/09 08:01:07;;;;;;;7.88;2.95;;;31.30;93.50;;;;;;6280922;22;20046;-89
2023/07/09 08:03:33;;;;;;;7.40;3.15;;;31.00;94.30;;;;;;6280181;22;20449;-90
2023/07/09 08:06:02;;;;;;;6.38;3.17;;;31.00;94.80;;;;;;6280965;22;20042;-90
2023/07/09 08:08:28;;;;;;;5.35;2.92;;;31.20;95.00;;;;;;6280346;22;20304;-91
2023/07/09 08:11:04;;;;;;;4.28;2.85;;;31.40;95.20;;;;;;6281243;22;20062;-95
2023/07/09 08:13:32;;;;;;;6.32;2.88;;;31.60;95.20;;;;;;6281185;22;20334;-91
2023/07/09 08:15:58;;;;;;;7.70;2.90;;;31.70;94.80;;;;;;6281626;22;20508;-90
2023/07/09 08:18:25;;;;;;;3.45;2.83;;;32.00;94.60;;;;;;6280069;22;20023;-91
2023/07/09 08:20:51;;;;;;;3.75;3.03;;;32.20;94.60;;;;;;6300343;22;20042;-90
2023/07/09 08:23:17;;;;;;;4.10;2.60;;;32.10;93.90;;;;;;6307056;22;20017;-90
2023/07/09 08:25:42;;;;;;;5.50;2.65;;;32.10;94.00;;;;;;6307006;22;20008;-89
2023/07/09 08:28:08;;;;;;;4.28;3.17;;;32.10;93.90;;;;;;6302306;22;20030;-89
2023/07/09 08:30:36;;;;;;;3.53;2.78;;;32.00;93.70;;;;;;6279573;22;20007;-91
2023/07/09 08:33:01;;;;;;;4.88;2.58;;;31.90;93.60;;;;;;6304397;22;20019;-90
2023/07/09 08:35:27;;;;;;;2.97;2.25;;;31.80;93.80;;;;;;6258643;22;20016;-90
2023/07/09 08:37:53;;;;;;;3.95;3.35;;;31.90;94.10;;;;;;6253860;22;20339;-91
2023/07/09 08:40:19;;;;;;;3.00;2.45;;;32.20;94.10;;;;;;6281283;22;20011;-90
2023/07/09 08:43:29;;;;;;;3.92;2.70;;;32.30;93.60;;;;;;6279724;22;20043;-93
2023/07/09 08:46:15;;;;;;;5.18;2.40;;;32.40;93.30;;;;;;6330400;22;20069;-91
2023/07/09 08:48:45;;;;;;;4.82;2.90;;;32.40;93.10;;;;;;6279942;22;20018;-92
2023/07/09 08:51:19;;;;;;;4.65;2.47;;;32.50;93.20;;;;;;6276975;22;20015;-92
2023/07/09 08:54:09;;;;;;;5.25;2.80;;;32.60;93.20;;;;;;6276481;22;20026;-93
2023/07/09 08:56:59;;;;;;;3.75;3.10;;;32.70;93.30;;;;;;6305339;22;20018;-96
2023/07/09 08:59:29;;;;;;;4.10;2.58;;;33.00;92.80;;;;;;6305801;22;20026;-94
2023/07/09 09:02:01;;;;;;;4.60;2.78;;;33.30;92.70;;;;;;6280341;22;20022;-95
2023/07/09 09:05:00;;;;;;;4.20;3.00;;;33.60;92.50;;;;;;6280219;22;20046;-95
2023/07/09 09:08:26;;;;;;;3.38;2.83;;;33.60;92.00;;;;;;6282749;22;20011;-96
2023/07/09 09:11:29;;;;;;;7.20;3.40;;;33.60;92.00;;;;;;6197255;23;20483;-95
2023/07/09 09:14:01;;;;;;;3.63;3.20;;;33.50;91.50;;;;;;6194071;23;20016;-93
2023/07/09 09:16:30;;;;;;;7.53;3.25;;;33.20;91.40;;;;;;6241034;22;20094;-95
2023/07/09 09:19:00;;;;;;;5.25;3.33;;;33.00;91.40;;;;;;6308514;22;20092;-94
2023/07/09 09:21:37;;;;;;;4.53;2.97;;;32.90;91.80;;;;;;6285369;22;20442;-94
2023/07/09 09:24:20;;;;;;;5.18;3.22;;;32.80;92.70;;;;;;6282844;22;20015;-93
2023/07/09 09:26:48;;;;;;;5.13;3.63;;;32.70;92.70;;;;;;6309762;22;20097;-94
2023/07/09 09:29:15;;;;;;;7.68;3.70;;;32.40;92.90;;;;;;6283450;22;20749;-91
2023/07/09 09:31:44;;;;;;;6.97;4.22;;;32.00;92.80;;;;;;6282307;22;20015;-93
2023/07/09 09:34:22;;;;;;;4.97;3.90;;;31.60;93.10;;;;;;6282958;22;20012;-92
2023/07/09 09:36:50;;;;;;;6.45;4.30;;;31.20;93.80;;;;;;6280842;22;20007;-92
2023/07/09 09:39:17;;;;;;;5.85;4.28;;;31.00;94.20;;;;;;6283143;22;20018;-93
2023/07/09 09:41:45;;;;;;;5.82;4.80;;;31.00;94.40;;;;;;6282803;22;20101;-92
2023/07/09 09:44:25;;;;;;;5.28;4.78;;;30.90;94.40;;;;;;6287487;22;19999;-93
2023/07/09 09:46:51;;;;;;;5.93;4.70;;;30.80;94.70;;;;;;6309686;22;20026;-92
2023/07/09 09:49:17;;;;;;;5.72;5.20;;;30.70;94.60;;;;;;6284200;22;20003;-92
2023/07/09 09:51:45;;;;;;;6.32;5.55;;;30.60;94.90;;;;;;6306249;22;20047;-93
2023/07/09 09:54:20;;;;;;;5.78;5.28;;;30.50;95.30;;;;;;6284301;22;20399;-89
2023/07/09 09:56:49;;;;;;;6.40;5.45;;;30.60;96.00;;;;;;6282948;22;20563;-91
2023/07/09 09:59:30;;;;;;;6.45;5.85;;;30.50;96.60;;;;;;6307872;22;20008;-91
2023/07/09 10:02:27;;;;;;;7.00;6.38;;;30.60;96.30;;;;;;6282090;22;20014;-91
2023/07/09 10:04:55;;;;;;;6.75;5.78;;;30.50;96.50;;;;;;6307463;22;20646;-91
2023/07/09 10:07:47;;;;;;;6.10;5.60;;;30.50;96.50;;;;;;6283119;22;20015;-89
2023/07/09 10:10:19;;;;;;;6.75;5.90;;;30.40;97.00;;;;;;6307896;22;20007;-91
2023/07/09 10:12:50;;;;;;;7.28;5.80;;;30.50;97.50;;;;;;6281512;22;20015;-91
2023/07/09 10:15:18;;;;;;;6.93;6.00;;;30.50;97.30;;;;;;6282370;22;20057;-92
2023/07/09 10:18:00;;;;;;;6.35;5.75;;;30.50;97.70;;;;;;6308255;22;20061;-94
2023/07/09 10:20:51;;;;;;;7.75;6.15;;;30.70;97.70;;;;;;6308713;22;20015;-95
2023/07/09 10:23:59;;;;;;;6.35;5.07;;;30.70;97.20;;;;;;6309910;22;20050;-95
2023/07/09 10:27:15;;;;;;;7.05;5.85;;;30.70;96.90;;;;;;6298542;22;20063;-92
2023/07/09 10:37:53;;;;;;;9.13;4.85;;;30.90;97.00;;;;;;6217745;23;20456;-95
2023/07/09 10:40:49;;;;;;;5.90;4.32;;;31.10;96.70;;;;;;6319545;22;20010;-92
2023/07/09 10:43:22;;;;;;;5.25;4.75;;;31.30;96.90;;;;;;6308749;22;20016;-91
2023/07/09 10:45:54;;;;;;;7.32;4.72;;;31.40;96.60;;;;;;6308860;22;20014;-90
2023/07/09 10:48:59;;;;;;;7.22;4.90;;;31.50;96.60;;;;;;6309363;22;20011;-90
2023/07/09 10:51:53;;;;;;;5.57;4.80;;;31.60;96.80;;;;;;6277365;22;20015;-88
2023/07/09 10:54:32;;;;;;;5.50;5.00;;;31.50;97.10;;;;;;6278539;22;20018;-91
2023/07/09 10:57:14;;;;;;;4.90;4.40;;;31.40;97.40;;;;;;6281956;22;20015;-90
2023/07/09 10:59:41;;;;;;;5.57;5.00;;;31.30;97.40;;;;;;6286195;22;20011;-91
2023/07/09 11:02:23;;;;;;;5.40;4.50;;;31.20;98.00;;;;;;6307300;22;20007;-90
2023/07/09 11:04:58;;;;;;;6.82;4.63;;;31.10;97.30;;;;;;6304926;22;20019;-87
2023/07/09 11:07:35;;;;;;;7.15;4.78;;;31.00;97.30;;;;;;6299871;22;20015;-35
2023/07/09 11:10:17;;;;;;;4.25;3.60;;;31.00;97.60;;;;;;6331154;22;20463;-36
2023/07/09 11:12:50;;;;;;;4.40;4.00;;;31.10;97.70;;;;;;6331838;22;20007;-36
2023/07/09 11:15:23;;;;;;;4.82;4.25;;;31.10;97.80;;;;;;6304396;22;20019;-36
2023/07/09 11:17:51;;;;;;;5.03;3.80;;;31.10;97.80;;;;;;6330542;22;20014;-36
2023/07/09 11:20:25;;;;;;;5.50;4.22;;;31.20;97.80;;;;;;6330804;22;20071;-36
2023/07/09 11:23:06;;;;;;;6.22;4.68;;;31.20;97.40;;;;;;6330265;22;20046;-36
2023/07/09 11:25:41;;;;;;;4.60;4.18;;;31.30;97.40;;;;;;6332685;22;20015;-35
2023/07/09 11:28:07;;;;;;;5.55;3.80;;;31.30;96.90;;;;;;6329750;22;20067;-35
2023/07/09 11:30:53;;;;;;;;;;;31.30;97.00;;;;;;6331061;22;20010;-36
2023/07/09 11:33:29;;;;;;;4.70;3.33;;;31.20;97.00;;;;;;6330619;22;19910;-36
2023/07/09 11:36:12;;;;;;;5.18;3.65;;;31.30;97.10;;;;;;6330089;22;20011;-36
2023/07/09 11:38:46;;;;;;;5.47;3.47;;;31.30;96.80;;;;;;6329909;22;20018;-36
2023/07/09 11:41:28;;;;;;;4.97;3.10;;;31.30;97.00;;;;;;6328900;22;20025;-36
2023/07/09 11:44:08;;;;;;;5.78;3.35;;;31.50;97.10;;;;;;6330038;22;20042;-36
2023/07/09 11:46:36;;;;;;;6.95;4.03;;;31.50;96.80;;;;;;6330843;22;20014;-36
2023/07/09 11:49:03;;;;;;;4.47;3.55;;;31.60;97.10;;;;;;6328449;22;20006;-36
2023/07/09 11:51:50;;;;;;;5.43;4.13;;;31.60;97.10;;;;;;6351516;22;20017;-36
2023/07/09 11:54:19;;;;;;;4.78;3.58;;;31.60;97.00;;;;;;6332222;22;20067;-36
2023/07/09 11:56:58;;;;;;;4.68;4.00;;;31.50;96.90;;;;;;6328982;22;20011;-36
2023/07/09 11:59:24;;;;;;;4.75;4.00;;;31.50;97.00;;;;;;6326303;22;20017;-36
2023/07/09 12:01:52;;;;;;;;;;;31.40;97.30;;;;;;6330023;22;20518;-36
2023/07/09 12:04:29;;;;;;;4.75;4.25;;;31.40;97.80;;;;;;6355702;22;20337;-36
2023/07/09 12:07:01;;;;;;;6.55;4.15;;;31.30;97.70;;;;;;6326828;22;20072;-36
2023/07/09 12:09:38;;;;;;;3.90;3.53;;;31.30;97.80;;;;;;6329605;22;20079;-36
2023/07/09 12:12:05;;;;;;;7.45;4.07;;;31.20;97.60;;;;;;6331023;22;20091;-36
2023/07/09 12:14:34;;;;;;;5.05;4.30;;;31.20;97.80;;;;;;6328029;22;20529;-36
2023/07/09 12:17:00;;;;;;;4.82;4.22;;;31.20;97.60;;;;;;6352502;22;20329;-36
2023/07/09 12:19:29;;;;;;;6.05;4.10;;;31.20;97.90;;;;;;6326710;22;20075;-36
2023/07/09 12:21:58;;;;;;;4.80;4.40;;;31.20;98.00;;;;;;6328728;22;20098;-36
2023/07/09 12:24:35;;;;;;;5.45;4.03;;;31.10;98.10;;;;;;6326529;22;20464;-36
2023/07/09 12:27:04;;;;;;;5.38;4.22;;;31.10;98.00;;;;;;6326816;22;20311;-36
2023/07/09 12:29:34;;;;;;;4.82;4.32;;;31.00;98.00;;;;;;6355759;22;20015;-36
2023/07/09 12:32:10;;;;;;;5.10;4.38;;;31.00;98.10;;;;;;6330745;22;20076;-36
2023/07/09 12:34:35;;;;;;;6.38;4.32;;;30.90;98.20;;;;;;6332071;22;20010;-36
2023/07/09 12:37:01;;;;;;;5.05;4.15;;;30.90;98.10;;;;;;6330191;22;20025;-36
2023/07/09 12:43:11;;;;;;;4.75;3.63;;;30.90;98.80;;;;;;6328277;22;20049;-36
2023/07/09 12:45:37;;;;;;;4.15;3.63;;;30.90;98.90;;;;;;6328544;22;20070;-36
2023/07/09 12:48:03;;;;;;;4.13;3.55;;;30.90;99.00;;;;;;6332403;22;20021;-36
2023/07/09 12:50:34;;;;;;;6.45;3.65;;;30.80;98.80;;;;;;6355541;22;20013;-36
2023/07/09 12:53:13;;;;;;;4.45;3.55;;;30.80;99.20;;;;;;6331346;22;20501;-36
2023/07/09 12:55:42;;;;;;;5.68;3.50;;;30.80;99.30;;;;;;6332184;22;20017;-36
2023/07/09 12:58:18;;;;;;;5.13;3.75;;;30.80;99.80;;;;;;6333009;22;20423;-36
2023/07/09 13:00:51;;;;;;;6.20;4.07;;;30.70;99.70;;;;;;6330305;22;20079;-36
2023/07/09 13:03:21;;;;;;;3.80;3.40;;;30.70;99.50;;;;;;6331657;22;20021;-36
2023/07/09 13:06:33;;;;;;;3.70;3.40;;;30.70;99.40;;;;;;6355180;22;20015;-36
2023/07/09 13:08:59;;;;;;;4.20;3.78;;;30.70;99.90;;;;;;6300763;22;20460;-36
2023/07/09 13:11:32;;;;;;;5.13;3.30;;;30.70;99.90;;;;;;6331365;22;20023;-36
2023/07/09 13:14:02;;;;;;;3.83;3.40;;;30.80;99.80;;;;;;6333449;22;20522;-36
2023/07/09 13:16:28;;;;;;;4.40;4.00;;;30.80;99.80;;;;;;6331594;22;20080;-36
2023/07/09 13:18:54;;;;;;;3.63;3.28;;;30.80;99.90;;;;;;6333435;22;20107;-36
2023/07/09 13:21:21;;;;;;;5.63;4.10;;;30.80;99.90;;;;;;6355629;22;20442;-36
2023/07/09 13:23:47;;;;;;;4.10;3.70;;;30.80;99.90;;;;;;6330685;22;20019;-36
2023/07/09 13:26:17;;;;;;;3.90;3.53;;;30.70;99.90;;;;;;6333249;22;20605;-36
2023/07/09 13:28:45;;;;;;;4.80;3.92;;;30.50;99.80;;;;;;6330825;22;20007;-36
2023/07/09 13:31:14;;;;;;;3.92;3.42;;;30.50;99.90;;;;;;6330349;22;20014;-36
2023/07/09 13:33:42;;;;;;;3.97;3.58;;;30.40;99.90;;;;;;6333419;22;20030;-36
2023/07/09 13:36:08;;;;;;;3.80;3.47;;;30.40;99.90;;;;;;6325200;22;20015;-36